This is the latest recevied weather packets stored in our database for station/object AC0MR. If no packets are shown the sender has not sent any weather packets the latest 1 day(s).
| Time | Temp. | Humidity | Pressure | Rain* | Wind** | Luminosity | Snow |
|---|---|---|---|---|---|---|---|
| 1777997118 | 12.22° C | 41% | 1010.2 hPa | 0 mm | 0.89 m/s, 338° | 569 W/m² | - |
| 1777996518 | 11.67° C | 43% | 1010.4 hPa | 0 mm | 1.34 m/s, 248° | 649 W/m² | - |
| 1777995918 | 11.11° C | 45% | 1010.1 hPa | 0 mm | 1.79 m/s, 270° | 606 W/m² | - |
| 1777995318 | 11.11° C | 40% | 1009.8 hPa | 0 mm | 2.24 m/s, 338° | 339 W/m² | - |
| 1777994718 | 11.67° C | 41% | 1009.8 hPa | 0 mm | 0.89 m/s, 315° | 556 W/m² | - |
| 1777994118 | 11.67° C | 40% | 1009.9 hPa | 0 mm | 2.24 m/s, 293° | 444 W/m² | - |
| 1777993518 | 11.11° C | 41% | 1009.7 hPa | 0 mm | 1.34 m/s, 315° | 482 W/m² | - |
| 1777992918 | 11.11° C | 44% | 1009.9 hPa | 0 mm | 1.79 m/s, 338° | 527 W/m² | - |
| 1777992318 | 11.11° C | 42% | 1009.9 hPa | 0 mm | 2.68 m/s, 315° | 434 W/m² | - |
| 1777991718 | 10.56° C | 46% | 1009.7 hPa | 0 mm | 0.89 m/s, 0° | 505 W/m² | - |
| 1777991118 | 10.56° C | 46% | 1009.7 hPa | 0 mm | 1.79 m/s, 338° | 392 W/m² | - |
| 1777990518 | 10.56° C | 46% | 1009.3 hPa | 0 mm | 1.79 m/s, 338° | 408 W/m² | - |
| 1777989918 | 10.56° C | 47% | 1009.2 hPa | 0 mm | 1.34 m/s, 293° | 398 W/m² | - |
| 1777989318 | 10° C | 49% | 1009.4 hPa | 0 mm | 0.45 m/s, 338° | 348 W/m² | - |
| 1777988718 | 9.44° C | 53% | 1009.4 hPa | 0 mm | 0.89 m/s, 270° | 302 W/m² | - |
| 1777988118 | 9.44° C | 51% | 1009.7 hPa | 0 mm | 1.34 m/s, 315° | 323 W/m² | - |
| 1777987518 | 8.89° C | 50% | 1009.7 hPa | 0 mm | 1.79 m/s, 338° | 222 W/m² | - |
| 1777986918 | 8.33° C | 52% | 1009.9 hPa | 0 mm | 0.89 m/s, 338° | 310 W/m² | - |
| 1777986318 | 7.78° C | 57% | 1010.2 hPa | 0 mm | 1.34 m/s, 270° | 243 W/m² | - |
| 1777985718 | 7.22° C | 59% | 1010 hPa | 0 mm | 1.34 m/s, 248° | 54 W/m² | - |
| 1777985118 | 6.67° C | 62% | 1010 hPa | 0 mm | 0.89 m/s, 293° | 95 W/m² | - |
| 1777984518 | 6.11° C | 65% | 1010.2 hPa | 0 mm | 0.45 m/s, 248° | 96 W/m² | - |
| 1777983918 | 6.11° C | 64% | 1010.2 hPa | 0 mm | 0.45 m/s, 248° | 51 W/m² | - |
| 1777983318 | 5.56° C | 65% | 1010 hPa | 0 mm | 0.89 m/s, 248° | 67 W/m² | - |
| 1777982718 | 5.56° C | 66% | 1009.9 hPa | 0 mm | 0.45 m/s, 248° | 62 W/m² | - |
* Rain latest hour (hover to see other rain measurements)
** Current wind speed in m/s (hover to see current wind gust speed)